METAR Data
IDs: Format: Raw Decoded Include TAF

Data at: 0117 UTC 23 Apr 2021

YCIN 230100Z AUTO 11009KT 9999 // NCD 30/10 Q1013
YCIN 230030Z AUTO 11008KT 9999 // NCD 28/08 Q1012 RF00.0/000.0
YCIN 230000Z AUTO 11010KT 9999 // NCD 26/07 Q1012
YCIN 222330Z AUTO 11011KT 9999 // NCD 25/06 Q1012 RF00.0/000.0
YCIN 222300Z AUTO 12010KT 9999 // NCD 24/06 Q1012
YCIN 222230Z AUTO 12009KT 9999 // NCD 22/05 Q1012 RF00.0/000.0
YCIN 222200Z AUTO 12009KT 9999 // NCD 21/05 Q1011
YCIN 222130Z AUTO 12010KT 9999 // NCD 21/06 Q1011 RF00.0/000.0
YCIN 222100Z AUTO 12010KT 9999 // NCD 21/06 Q1010
YCIN 222030Z AUTO 12010KT 9999 // NCD 22/06 Q1010 RF00.0/000.0
YCIN 222000Z AUTO 12010KT 9999 // NCD 22/06 Q1010
YCIN 221930Z AUTO 11009KT 9999 // SCT115 23/05 Q1010 RF00.0/000.0
YCIN 221900Z AUTO 13008KT 9999 // NCD 23/05 Q1010
YCIN 221830Z AUTO 12009KT 9999 // SCT115 24/05 Q1010 RF00.0/000.0
YCIN 221800Z AUTO 12008KT 9999 // NCD 24/05 Q1010
YCIN 221730Z AUTO 13008KT 9999 // NCD 25/05 Q1010 RF00.0/000.0
YCIN 221700Z AUTO 13007KT 9999 // NCD 23/06 Q1011
YCIN 221630Z AUTO 15006KT 9999 // NCD 23/06 Q1011 RF00.0/000.0
YCIN 221600Z AUTO 14006KT 9999 // NCD 24/06 Q1011
YCIN 221530Z AUTO 14007KT 9999 // NCD 24/06 Q1011 RF00.0/000.0
YCIN 221500Z AUTO 14006KT 9999 // NCD 24/06 Q1011
YCIN 221430Z AUTO 16007KT 9999 // NCD 23/07 Q1011 RF00.0/000.0
YCIN 221400Z AUTO 16008KT 9999 // NCD 24/07 Q1011
YCIN 221330Z AUTO 16007KT 9999 // NCD 24/07 Q1011 RF00.0/000.0
YCIN 221300Z AUTO 16007KT 9999 // NCD 24/07 Q1012
YCIN 221230Z AUTO 16006KT 9999 // NCD 25/07 Q1012 RF00.0/000.0
YCIN 221200Z AUTO 15007KT 9999 // NCD 26/07 Q1011
YCIN 221130Z AUTO 15007KT 9999 // NCD 25/08 Q1011 RF00.0/000.0
YCIN 221100Z AUTO 17007KT 9999 // NCD 25/09 Q1011
YCIN 221030Z AUTO 18006KT 9999 // NCD 26/09 Q1011 RF00.0/000.0
YCIN 221000Z AUTO 17006KT 9999 // NCD 27/09 Q1010
YCIN 220930Z AUTO 17006KT 9999 // SCT110 28/09 Q1010 RF00.0/000.0
YCIN 220900Z AUTO 16007KT 9999 // NCD 31/07 Q1010
YCIN 220830Z AUTO 16009KT 9999 // NCD 32/07 Q1010 RF00.0/000.0
YCIN 220800Z AUTO 14009KT 9999 // NCD 33/06 Q1009
YCIN 220730Z AUTO 13010KT 9999 // NCD 34/07 Q1009 RF00.0/000.0
YCIN 220700Z AUTO 15010KT 9999 // NCD 34/06 Q1009
YCIN 220630Z AUTO 13010KT 9999 // NCD 34/05 Q1009 RF00.0/000.0
YCIN 220600Z AUTO 14010KT 9999 // NCD 35/05 Q1009
YCIN 220530Z AUTO 15013KT 9999 // NCD 35/06 Q1010 RF00.0/000.0
YCIN 220500Z AUTO 14012KT 9999 // NCD 34/05 Q1010
YCIN 220430Z AUTO 14012KT 9999 // NCD 34/06 Q1011 RF00.0/000.0
YCIN 220400Z AUTO 14010KT 110V170 9999 // NCD 33/06 Q1011
YCIN 220330Z AUTO 13012KT 9999 // NCD 32/06 Q1011 RF00.0/000.0
YCIN 220300Z AUTO 13013KT 9999 // NCD 32/05 Q1012
YCIN 220230Z AUTO 12011KT 9999 // NCD 31/06 Q1013 RF00.0/000.0
YCIN 220200Z AUTO 12014KT 9999 // NCD 31/05 Q1013
YCIN 220130Z AUTO 12015KT 9999 // NCD 30/05 Q1013 RF00.0/000.0
YCIN 220100Z AUTO 11013KT 9999 // NCD 28/05 Q1013
YCIN 220030Z AUTO 12015KT 9999 // SCT110 27/04 Q1013 RF00.0/000.0
YCIN 220000Z AUTO 13013KT 9999 // BKN110 26/06 Q1013
YCIN 212330Z AUTO 13010KT 9999 // NCD 25/06 Q1013 RF00.0/000.0
YCIN 212300Z AUTO 12010KT 9999 // SCT105 23/06 Q1013
YCIN 212230Z AUTO 13007KT 9999 // BKN105 21/06 Q1013 RF00.0/000.0
YCIN 212200Z AUTO 13007KT 9999 // SCT105 20/05 Q1012
YCIN 212130Z AUTO 13008KT 9999 // SCT105 21/05 Q1012 RF00.0/000.0
YCIN 212100Z AUTO 14008KT 9999 // BKN105 21/06 Q1012
YCIN 212030Z AUTO 14008KT 9999 // BKN115 21/06 Q1011 RF00.0/000.0
YCIN 212000Z AUTO 15006KT 9999 // SCT115 20/06 Q1011
YCIN 211930Z AUTO 16006KT 9999 // BKN105 21/06 Q1011 RF00.0/000.0
YCIN 211900Z AUTO 15008KT 9999 // NCD 22/06 Q1011
YCIN 211830Z AUTO 18007KT 9999 // SCT115 22/06 Q1011 RF00.0/000.0
YCIN 211800Z AUTO 15010KT 9999 // SCT115 24/05 Q1011
YCIN 211730Z AUTO 15008KT 9999 // NCD 24/06 Q1011 RF00.0/000.0
YCIN 211700Z AUTO 16009KT 9999 // SCT115 24/06 Q1011
YCIN 211630Z AUTO 15007KT 9999 // SCT105 24/07 Q1011 RF00.0/000.0
YCIN 211600Z AUTO 16006KT 9999 // SCT105 22/07 Q1011
YCIN 211530Z AUTO 15006KT 9999 // BKN105 24/07 Q1012 RF00.0/000.0
YCIN 211500Z AUTO 15008KT 9999 // SCT105 25/07 Q1012
YCIN 211430Z AUTO 14005KT 9999 // SCT105 24/07 Q1012 RF00.0/000.0
YCIN 211400Z AUTO 14007KT 9999 // SCT105 25/07 Q1012
YCIN 211330Z AUTO 14007KT 9999 // NCD 25/07 Q1012 RF00.0/000.0